sim
Sign-in with your pilot id or email,
or register
Callsign
Passwort

Schedule Details

Flight Number: DLH2721 (1)
Departure: Dusseldorf International Airport (EDDL) at 18:40
Arrival: Munich Airport (EDDM) at 19:50
Route: Lufthansa Passenger Schedule. Enter filed route here before submitting Pirep.

Weather Information
Getting current METAR information for EDDL 010420Z 15013KT CAVOK 13/11 Q1004 NOSIG
Getting current METAR information for EDDM 010420Z 07001KT 0700 R08L/0450N R08R/0700N FG FEW001 03/03 Q1009 BECMG 0500 BKN001

Schedule Frequency

Route Map